Time;durP1;ratioP1;P1;durP2;ratioP2;P2;SDS_P1;SDS_P2;PMS_P1;PMS_P2;Temp;Humidity;BMP_temperature;BMP_pressure;BME280_temperature;BME280_humidity;BME280_pressure;Samples;Min_cycle;Max_cycle;Signal;HPM_P1;HPM_P2
2024/01/03 00:02:20;;;;;;;;;;;-3.40;99.90;;;;;;5059273;28;19960;-59
2024/01/03 00:04:47;;;;;;;;;;;-3.50;99.90;;;;;;5053959;28;20583;-58
2024/01/03 00:07:14;;;;;;;;;;;-3.50;99.90;;;;;;5056796;28;19936;-60
2024/01/03 00:09:41;;;;;;;;;;;-3.50;99.90;;;;;;5056462;28;20442;-58
2024/01/03 00:12:09;;;;;;;;;;;-3.50;99.90;;;;;;5054278;28;19971;-62
2024/01/03 00:14:36;;;;;;;;;;;-3.50;99.90;;;;;;5053370;28;19964;-60
2024/01/03 00:17:04;;;;;;;;;;;-3.50;99.90;;;;;;5051217;28;20279;-58
2024/01/03 00:19:33;;;;;;;;;;;-3.40;99.90;;;;;;5054927;28;19929;-64
2024/01/03 00:22:00;;;;;;;;;;;-3.40;99.90;;;;;;5059774;28;19928;-62
2024/01/03 00:24:28;;;;;;;;;;;-3.50;99.90;;;;;;5061624;28;19955;-60
2024/01/03 00:26:55;;;;;;;;;;;-3.40;99.90;;;;;;5063393;28;19943;-61
2024/01/03 00:29:22;;;;;;;;;;;-3.40;99.90;;;;;;5058124;28;19929;-59
2024/01/03 00:31:49;;;;;;;;;;;-3.50;99.90;;;;;;5053422;28;19932;-62
2024/01/03 00:34:22;;;;;;;;;;;-3.40;99.90;;;;;;5054200;28;20031;-59
2024/01/03 00:36:59;;;;;;;;;;;-3.40;99.90;;;;;;5052386;28;19924;-59
2024/01/03 00:39:26;;;;;;;;;;;-3.40;99.90;;;;;;5053581;28;19974;-61
2024/01/03 00:41:54;;;;;;;;;;;-3.40;99.90;;;;;;5057178;28;19925;-58
2024/01/03 00:44:22;;;;;;;;;;;-3.50;99.90;;;;;;5062654;28;20450;-61
2024/01/03 00:46:50;;;;;;;;;;;-3.50;99.90;;;;;;5057297;28;19931;-61
2024/01/03 00:49:17;;;;;;;;;;;-3.50;99.90;;;;;;5057976;28;19928;-59
2024/01/03 00:51:46;;;;;;;;;;;-3.40;99.90;;;;;;5056515;28;20015;-59
2024/01/03 00:54:14;;;;;;;;;;;-3.50;99.90;;;;;;5054341;28;19933;-61
2024/01/03 00:56:41;;;;;;;;;;;-3.50;99.90;;;;;;5055672;28;19928;-60
2024/01/03 00:59:08;;;;;;;;;;;-3.40;99.90;;;;;;5055244;28;19924;-61
2024/01/03 01:01:35;;;;;;;;;;;-3.40;99.90;;;;;;5055767;28;19929;-64
2024/01/03 01:04:02;;;;;;;;;;;-3.50;99.90;;;;;;5079902;28;20433;-64
2024/01/03 01:06:29;;;;;;;;;;;-3.50;99.90;;;;;;5054802;28;19928;-60
2024/01/03 01:08:57;;;;;;;;;;;-3.50;99.90;;;;;;5058120;28;20024;-61
2024/01/03 01:11:24;;;;;;;;;;;-3.50;99.90;;;;;;5055993;28;19928;-62
2024/01/03 01:13:51;;;;;;;;;;;-3.50;99.90;;;;;;5056476;28;19955;-58
2024/01/03 01:16:18;;;;;;;;;;;-3.50;99.90;;;;;;5051842;28;19978;-58
2024/01/03 01:18:44;;;;;;;;;;;-3.50;99.90;;;;;;5058939;28;19955;-58
2024/01/03 01:21:12;;;;;;;;;;;-3.50;99.90;;;;;;5049201;28;20385;-61
2024/01/03 01:23:42;;;;;;;;;;;-3.50;99.90;;;;;;5052288;28;20370;-58
2024/01/03 01:26:09;;;;;;;;;;;-3.50;99.90;;;;;;5053511;28;19936;-62
2024/01/03 01:28:36;;;;;;;;;;;-3.50;99.90;;;;;;5049800;28;19936;-62
2024/01/03 01:31:03;;;;;;;;;;;-3.50;99.90;;;;;;5058999;28;19928;-60
2024/01/03 01:33:30;;;;;;;;;;;-3.60;99.90;;;;;;5063117;28;19932;-61
2024/01/03 01:35:57;;;;;;;;;;;-3.50;99.90;;;;;;5055522;28;19932;-63
2024/01/03 01:38:24;;;;;;;;;;;-3.60;99.90;;;;;;5055155;28;20444;-59
2024/01/03 01:40:50;;;;;;;;;;;-3.60;99.90;;;;;;5055374;28;19929;-60
2024/01/03 01:43:17;;;;;;;;;;;-3.60;99.90;;;;;;5047290;28;20283;-59
2024/01/03 01:45:46;;;;;;;;;;;-3.60;99.90;;;;;;5051958;28;20519;-67
2024/01/03 01:48:15;;;;;;;;;;;-3.50;99.90;;;;;;5064647;28;19928;-59
2024/01/03 01:50:43;;;;;;;;;;;-3.60;99.90;;;;;;5048606;28;19925;-63
2024/01/03 01:53:10;;;;;;;;;;;-3.60;99.90;;;;;;5056187;28;20286;-62
2024/01/03 01:55:38;;;;;;;;;;;-3.60;99.90;;;;;;5058883;28;19941;-64
2024/01/03 01:58:05;;;;;;;;;;;-3.50;99.90;;;;;;5078611;28;19981;-62
2024/01/03 02:00:33;;;;;;;;;;;-3.50;99.90;;;;;;5054983;28;19929;-62
2024/01/03 02:03:00;;;;;;;;;;;-3.50;99.90;;;;;;5055524;28;19928;-63
2024/01/03 02:05:27;;;;;;;;;;;-3.60;99.90;;;;;;5046441;28;19939;-62
2024/01/03 02:07:54;;;;;;;;;;;-3.50;99.90;;;;;;5052352;28;20284;-61
2024/01/03 02:10:21;;;;;;;;;;;-3.50;99.90;;;;;;5048401;28;19925;-60
2024/01/03 02:12:48;;;;;;;;;;;-3.50;99.90;;;;;;5060735;28;19935;-67
2024/01/03 02:15:15;;;;;;;;;;;-3.50;99.90;;;;;;5046178;28;19956;-61
2024/01/03 02:17:41;;;;;;;;;;;-3.60;99.90;;;;;;5058029;28;19986;-62
2024/01/03 02:20:11;;;;;;;;;;;-3.60;99.90;;;;;;5058231;28;19929;-64
2024/01/03 02:22:38;;;;;;;;;;;-3.60;99.90;;;;;;5064134;28;19929;-59
2024/01/03 02:25:10;;;;;;;;;;;-3.60;99.90;;;;;;5054651;28;19924;-58
2024/01/03 02:27:38;;;;;;;;;;;-3.60;99.90;;;;;;5085377;28;19924;-58
2024/01/03 02:30:05;;;;;;;;;;;-3.60;99.90;;;;;;5054654;28;19982;-59
2024/01/03 02:32:32;;;;;;;;;;;-3.60;99.90;;;;;;5052010;28;19929;-64
2024/01/03 02:34:59;;;;;;;;;;;-3.60;99.90;;;;;;5054602;28;20036;-67
2024/01/03 02:37:26;;;;;;;;;;;-3.60;99.90;;;;;;5052321;28;20038;-58
2024/01/03 02:39:53;;;;;;;;;;;-3.70;99.90;;;;;;5047352;28;19993;-63
2024/01/03 02:42:20;;;;;;;;;;;-3.60;99.90;;;;;;5051369;28;20047;-61
2024/01/03 02:44:47;;;;;;;;;;;-3.60;99.90;;;;;;5053890;28;20019;-61
2024/01/03 02:47:13;;;;;;;;;;;-3.70;99.90;;;;;;5055473;28;19933;-60
2024/01/03 02:49:40;;;;;;;;;;;-3.70;99.90;;;;;;5055106;28;19928;-61
2024/01/03 02:52:07;;;;;;;;;;;-3.70;99.90;;;;;;5051804;28;19928;-64
2024/01/03 02:54:34;;;;;;;;;;;-3.70;99.90;;;;;;5051806;28;19982;-61
2024/01/03 02:57:01;;;;;;;;;;;-3.70;99.90;;;;;;5050362;28;19933;-63
2024/01/03 02:59:28;;;;;;;;;;;-3.70;99.90;;;;;;5049557;28;20027;-64
2024/01/03 03:01:55;;;;;;;;;;;-3.70;99.90;;;;;;5047666;28;19936;-60
2024/01/03 03:04:22;;;;;;;;;;;-3.70;99.90;;;;;;5061567;28;20726;-62
2024/01/03 03:06:49;;;;;;;;;;;-3.80;99.90;;;;;;5051309;28;19933;-59
2024/01/03 03:09:16;;;;;;;;;;;-3.80;99.90;;;;;;5059746;28;19925;-60
2024/01/03 03:11:43;;;;;;;;;;;-3.80;99.90;;;;;;5050070;28;19929;-59
2024/01/03 03:14:10;;;;;;;;;;;-3.80;99.90;;;;;;5053768;28;20266;-62
2024/01/03 03:16:37;;;;;;;;;;;-3.80;99.90;;;;;;5053129;28;19929;-61
2024/01/03 03:19:05;;;;;;;;;;;-3.80;99.90;;;;;;5052770;28;20015;-64
2024/01/03 03:21:33;;;;;;;;;;;-3.70;99.90;;;;;;5046050;28;19936;-61
2024/01/03 03:24:00;;;;;;;;;;;-3.80;99.90;;;;;;5048506;28;19929;-63
2024/01/03 03:26:27;;;;;;;;;;;-3.70;99.90;;;;;;5047110;28;19948;-59
2024/01/03 03:28:54;;;;;;;;;;;-3.80;99.90;;;;;;5048257;28;19924;-63
2024/01/03 03:31:21;;;;;;;;;;;-3.80;99.90;;;;;;5050178;28;19924;-67
2024/01/03 03:33:48;;;;;;;;;;;-3.80;99.90;;;;;;5052772;28;20019;-60
2024/01/03 03:36:15;;;;;;;;;;;-3.80;99.90;;;;;;5050038;28;19994;-60
2024/01/03 03:38:42;;;;;;;;;;;-3.80;99.90;;;;;;5054354;28;19951;-58
2024/01/03 03:41:10;;;;;;;;;;;-3.80;99.90;;;;;;5056017;28;19936;-62
2024/01/03 03:43:39;;;;;;;;;;;-3.70;99.90;;;;;;5048074;28;19937;-64
2024/01/03 03:46:10;;;;;;;;;;;-3.70;99.90;;;;;;5049742;28;19924;-59
2024/01/03 03:48:37;;;;;;;;;;;-3.80;99.90;;;;;;5043847;28;19932;-63
2024/01/03 03:51:04;;;;;;;;;;;-3.80;99.90;;;;;;5049455;28;19936;-61
2024/01/03 03:53:31;;;;;;;;;;;-3.80;99.90;;;;;;5057416;28;19932;-61
2024/01/03 03:55:58;;;;;;;;;;;-3.80;99.90;;;;;;5059280;28;20056;-60
2024/01/03 03:58:25;;;;;;;;;;;-3.80;99.90;;;;;;5052519;28;19935;-60
2024/01/03 04:00:52;;;;;;;;;;;-3.80;99.90;;;;;;5055334;28;20015;-64
2024/01/03 04:03:19;;;;;;;;;;;-3.70;99.90;;;;;;5052512;28;20032;-62
2024/01/03 04:05:46;;;;;;;;;;;-3.70;99.90;;;;;;5052224;28;19952;-59
2024/01/03 04:08:12;;;;;;;;;;;-3.70;99.90;;;;;;5049330;28;19932;-61
2024/01/03 04:10:40;;;;;;;;;;;-3.70;99.90;;;;;;5048823;28;19928;-61
2024/01/03 04:13:07;;;;;;;;;;;-3.70;99.90;;;;;;5048912;28;19932;-65
2024/01/03 04:15:34;;;;;;;;;;;-3.70;99.90;;;;;;5052914;28;19971;-60
2024/01/03 04:18:02;;;;;;;;;;;-3.70;99.90;;;;;;5048887;28;19936;-59
2024/01/03 04:20:29;;;;;;;;;;;-3.70;99.90;;;;;;5057655;28;20031;-59
2024/01/03 04:22:57;;;;;;;;;;;-3.60;99.90;;;;;;5052085;28;19929;-62
2024/01/03 04:25:24;;;;;;;;;;;-3.60;99.90;;;;;;5053660;28;19932;-59
2024/01/03 04:27:51;;;;;;;;;;;-3.70;99.90;;;;;;5051904;28;20268;-60
2024/01/03 04:30:18;;;;;;;;;;;-3.60;99.90;;;;;;5050726;28;19932;-61
2024/01/03 04:32:45;;;;;;;;;;;-3.60;99.90;;;;;;5047816;28;19925;-61
2024/01/03 04:35:12;;;;;;;;;;;-3.60;99.90;;;;;;5046357;28;20318;-59
2024/01/03 04:37:39;;;;;;;;;;;-3.60;99.90;;;;;;5055609;28;19936;-59
2024/01/03 04:40:06;;;;;;;;;;;-3.60;99.90;;;;;;5061623;28;20418;-60
2024/01/03 04:42:32;;;;;;;;;;;-3.60;99.90;;;;;;5063413;28;19929;-62
2024/01/03 04:44:59;;;;;;;;;;;-3.60;99.90;;;;;;5056221;28;19959;-59
2024/01/03 04:47:26;;;;;;;;;;;-3.60;99.90;;;;;;5056147;28;20274;-59
2024/01/03 04:49:54;;;;;;;;;;;-3.60;99.90;;;;;;5052586;28;20819;-59
2024/01/03 04:52:21;;;;;;;;;;;-3.60;99.90;;;;;;5053557;28;20023;-62
2024/01/03 04:54:48;;;;;;;;;;;-3.60;99.90;;;;;;5053404;28;19933;-59
2024/01/03 04:57:14;;;;;;;;;;;-3.60;99.90;;;;;;5051947;28;19968;-59
2024/01/03 04:59:46;;;;;;;;;;;-3.70;99.90;;;;;;5050541;28;19957;-61
2024/01/03 05:02:12;;;;;;;;;;;-3.70;99.90;;;;;;5061761;28;19925;-65
2024/01/03 05:04:41;;;;;;;;;;;-3.70;99.90;;;;;;5061850;28;20435;-62
2024/01/03 05:07:08;;;;;;;;;;;-3.70;99.90;;;;;;5053421;28;19959;-62
2024/01/03 05:09:35;;;;;;;;;;;-3.70;99.90;;;;;;5056559;28;19978;-66
2024/01/03 05:12:04;;;;;;;;;;;-3.70;99.90;;;;;;5056549;28;19929;-59
2024/01/03 05:14:32;;;;;;;;;;;-3.60;99.90;;;;;;5053820;28;19935;-60
2024/01/03 05:16:59;;;;;;;;;;;-3.60;99.90;;;;;;5054795;28;20465;-59
2024/01/03 05:19:26;;;;;;;;;;;-3.60;99.90;;;;;;5056797;28;19924;-60
2024/01/03 05:21:53;;;;;;;;;;;-3.70;99.90;;;;;;5055001;28;20378;-64
2024/01/03 05:24:20;;;;;;;;;;;-3.70;99.90;;;;;;5053684;28;20389;-59
2024/01/03 05:26:47;;;;;;;;;;;-3.70;99.90;;;;;;5064400;28;19966;-61
2024/01/03 05:29:14;;;;;;;;;;;-3.70;99.90;;;;;;5055857;28;20027;-63
2024/01/03 05:31:41;;;;;;;;;;;-3.70;99.90;;;;;;5058492;28;19935;-60
2024/01/03 05:34:09;;;;;;;;;;;-3.70;99.90;;;;;;5054740;28;19928;-60
2024/01/03 05:36:36;;;;;;;;;;;-3.70;99.90;;;;;;5053535;28;19935;-59
2024/01/03 05:39:02;;;;;;;;;;;-3.70;99.90;;;;;;5054262;28;19924;-59
2024/01/03 05:41:29;;;;;;;;;;;-3.70;99.90;;;;;;5052810;28;19982;-59
2024/01/03 05:43:56;;;;;;;;;;;-3.70;99.90;;;;;;5052116;28;19932;-60
2024/01/03 05:46:23;;;;;;;;;;;-3.80;99.90;;;;;;5045236;28;19946;-59
2024/01/03 05:48:50;;;;;;;;;;;-3.80;99.90;;;;;;5056463;28;19933;-62
2024/01/03 05:51:17;;;;;;;;;;;-3.80;99.90;;;;;;5059607;28;19939;-59
2024/01/03 05:53:47;;;;;;;;;;;-3.80;99.90;;;;;;5054244;28;20271;-60
2024/01/03 05:56:15;;;;;;;;;;;-3.80;99.90;;;;;;5056755;28;19932;-60
2024/01/03 05:58:43;;;;;;;;;;;-3.80;99.90;;;;;;5053169;28;19936;-58
2024/01/03 06:01:10;;;;;;;;;;;-3.80;99.90;;;;;;5055581;28;20026;-61
2024/01/03 06:03:37;;;;;;;;;;;-3.80;99.90;;;;;;5054202;28;19929;-62
2024/01/03 06:06:04;;;;;;;;;;;-3.80;99.90;;;;;;5051789;28;20561;-61
2024/01/03 06:08:31;;;;;;;;;;;-3.80;99.90;;;;;;5048615;28;19932;-61
2024/01/03 06:10:58;;;;;;;;;;;-3.80;99.90;;;;;;5055656;28;20320;-59
2024/01/03 06:13:25;;;;;;;;;;;-3.80;99.90;;;;;;5053564;28;19929;-62
2024/01/03 06:15:52;;;;;;;;;;;-3.80;99.90;;;;;;5063768;28;20052;-62
2024/01/03 06:18:19;;;;;;;;;;;-3.80;99.90;;;;;;5055533;28;19948;-60
2024/01/03 06:20:47;;;;;;;;;;;-3.80;99.90;;;;;;5057242;28;19929;-61
2024/01/03 06:23:14;;;;;;;;;;;-3.80;99.90;;;;;;5053892;28;20762;-60
2024/01/03 06:25:41;;;;;;;;;;;-3.80;99.90;;;;;;5056153;28;19974;-59
2024/01/03 06:28:07;;;;;;;;;;;-3.80;99.90;;;;;;5054059;28;19928;-60
2024/01/03 06:30:35;;;;;;;;;;;-3.80;99.90;;;;;;5049955;28;20789;-60
2024/01/03 06:33:02;;;;;;;;;;;-3.80;99.90;;;;;;5049259;28;19929;-58
2024/01/03 06:35:30;;;;;;;;;;;-3.80;99.90;;;;;;5057391;28;19928;-66
2024/01/03 06:37:57;;;;;;;;;;;-3.90;99.90;;;;;;5051225;28;19925;-60
2024/01/03 06:40:24;;;;;;;;;;;-3.90;99.90;;;;;;5057362;28;19982;-59
2024/01/03 06:42:50;;;;;;;;;;;-3.90;99.90;;;;;;5056697;28;20434;-58
2024/01/03 06:45:17;;;;;;;;;;;-3.90;99.90;;;;;;5051808;28;19932;-61
2024/01/03 06:47:44;;;;;;;;;;;-3.90;99.90;;;;;;5055991;28;19924;-64
2024/01/03 06:50:13;;;;;;;;;;;-3.90;99.90;;;;;;5049125;28;19964;-64
2024/01/03 06:52:40;;;;;;;;;;;-4.00;99.90;;;;;;5048143;28;19936;-60
2024/01/03 06:55:07;;;;;;;;;;;-4.00;99.90;;;;;;5049135;28;19971;-63
2024/01/03 06:57:33;;;;;;;;;;;-4.00;99.90;;;;;;5050888;28;20013;-61
2024/01/03 07:00:00;;;;;;;;;;;-4.00;99.90;;;;;;5061880;28;19924;-59
2024/01/03 07:02:27;;;;;;;;;;;-4.00;99.90;;;;;;5060133;28;19935;-59
2024/01/03 07:04:54;;;;;;;;;;;-4.00;99.90;;;;;;5055899;28;19933;-61
2024/01/03 07:07:21;;;;;;;;;;;-4.00;99.90;;;;;;5053858;28;19974;-58
2024/01/03 07:09:48;;;;;;;;;;;-4.00;99.90;;;;;;5055840;28;20393;-60
2024/01/03 07:12:18;;;;;;;;;;;-4.00;99.90;;;;;;5053832;28;19978;-59
2024/01/03 07:14:45;;;;;;;;;;;-4.00;99.90;;;;;;5051051;28;20455;-58
2024/01/03 07:17:15;;;;;;;;;;;-4.00;99.90;;;;;;5052058;28;19929;-61
2024/01/03 07:19:42;;;;;;;;;;;-4.10;99.90;;;;;;5042438;28;20001;-59
2024/01/03 07:22:09;;;;;;;;;;;-4.10;99.90;;;;;;5051323;28;19924;-59
2024/01/03 07:24:38;;;;;;;;;;;-4.10;99.90;;;;;;5059959;28;19932;-64
2024/01/03 07:27:06;;;;;;;;;;;-4.00;99.90;;;;;;5055977;28;19929;-62
2024/01/03 07:29:33;;;;;;;;;;;-4.10;99.90;;;;;;5054515;28;19935;-58
2024/01/03 07:32:00;;;;;;;;;;;-4.10;99.90;;;;;;5057006;28;19928;-59
2024/01/03 07:34:27;;;;;;;;;;;-4.10;99.90;;;;;;5050774;28;19948;-63
2024/01/03 07:36:54;;;;;;;;;;;-4.10;99.90;;;;;;5049445;28;20043;-59
2024/01/03 07:39:20;;;;;;;;;;;-4.10;99.90;;;;;;5051351;28;19986;-59
2024/01/03 07:41:47;;;;;;;;;;;-4.10;99.90;;;;;;5052691;28;20504;-61
2024/01/03 07:44:14;;;;;;;;;;;-4.10;99.90;;;;;;5047205;28;20323;-62
2024/01/03 07:46:41;;;;;;;;;;;-4.10;99.90;;;;;;5053619;28;19925;-58
2024/01/03 07:49:08;;;;;;;;;;;-4.10;99.90;;;;;;5057945;28;20449;-59
2024/01/03 07:51:38;;;;;;;;;;;-4.10;99.90;;;;;;5052858;28;19928;-64
2024/01/03 07:54:07;;;;;;;;;;;-4.10;99.90;;;;;;5054398;28;20027;-61
2024/01/03 07:56:34;;;;;;;;;;;-4.10;99.90;;;;;;5056408;28;19981;-61
2024/01/03 07:59:01;;;;;;;;;;;-4.10;99.90;;;;;;5051751;28;19932;-59
2024/01/03 08:01:28;;;;;;;;;;;-4.10;99.90;;;;;;5052933;28;20464;-60
2024/01/03 08:03:55;;;;;;;;;;;-4.10;99.90;;;;;;5046632;28;20159;-64
2024/01/03 08:06:22;;;;;;;;;;;-4.10;99.90;;;;;;5049495;28;20426;-64
2024/01/03 08:08:49;;;;;;;;;;;-4.10;99.90;;;;;;5048330;28;19968;-59
2024/01/03 08:11:15;;;;;;;;;;;-4.10;99.90;;;;;;5056027;28;20010;-62
2024/01/03 08:13:42;;;;;;;;;;;-4.10;99.90;;;;;;5057444;28;20016;-58
2024/01/03 08:16:10;;;;;;;;;;;-4.10;99.90;;;;;;5054538;28;19952;-60
2024/01/03 08:18:39;;;;;;;;;;;-4.10;99.90;;;;;;5059241;28;19928;-67
2024/01/03 08:21:06;;;;;;;;;;;-4.00;99.90;;;;;;5056480;28;19985;-61
2024/01/03 08:23:33;;;;;;;;;;;-4.00;99.90;;;;;;5055397;28;19928;-64
2024/01/03 08:26:00;;;;;;;;;;;-4.00;99.90;;;;;;5052628;28;20386;-61
2024/01/03 08:28:27;;;;;;;;;;;-4.00;99.90;;;;;;5051876;28;20422;-59
2024/01/03 08:30:53;;;;;;;;;;;-4.00;99.90;;;;;;5051180;28;20058;-60
2024/01/03 08:33:20;;;;;;;;;;;-4.00;99.90;;;;;;5055565;28;19928;-60
2024/01/03 08:35:47;;;;;;;;;;;-4.00;99.90;;;;;;5061922;28;19929;-59
2024/01/03 08:38:14;;;;;;;;;;;-4.00;99.90;;;;;;5058473;28;19935;-59
2024/01/03 08:40:41;;;;;;;;;;;-4.10;99.90;;;;;;5055175;28;19956;-64
2024/01/03 08:43:08;;;;;;;;;;;-4.00;99.90;;;;;;5057608;28;20015;-59
2024/01/03 08:45:35;;;;;;;;;;;-4.00;99.90;;;;;;5054517;28;20032;-62
2024/01/03 08:48:03;;;;;;;;;;;-4.00;99.90;;;;;;5050826;28;19965;-62
2024/01/03 08:50:30;;;;;;;;;;;-4.00;99.90;;;;;;5051491;28;19948;-58
2024/01/03 08:52:57;;;;;;;;;;;-4.00;99.90;;;;;;5051096;28;19924;-62
2024/01/03 08:55:24;;;;;;;;;;;-4.00;99.90;;;;;;5049533;28;19929;-59
2024/01/03 08:57:56;;;;;;;;;;;-4.00;99.90;;;;;;5062114;28;20038;-60
2024/01/03 09:00:24;;;;;;;;;;;-4.00;99.90;;;;;;5056285;28;19929;-58
2024/01/03 09:02:51;;;;;;;;;;;-4.00;99.90;;;;;;5060071;28;19928;-64
2024/01/03 09:05:19;;;;;;;;;;;-4.00;99.90;;;;;;5051024;28;19925;-60
2024/01/03 09:07:46;;;;;;;;;;;-4.00;99.90;;;;;;5057513;28;19951;-60
2024/01/03 09:10:13;;;;;;;;;;;-4.00;99.90;;;;;;5051528;28;19979;-64
2024/01/03 09:12:40;;;;;;;;;;;-4.00;99.90;;;;;;5053820;28;19932;-61
2024/01/03 09:15:07;;;;;;;;;;;-4.00;99.90;;;;;;5051074;28;19931;-59
2024/01/03 09:17:34;;;;;;;;;;;-4.00;99.90;;;;;;5051343;28;19929;-65
2024/01/03 09:20:01;;;;;;;;;;;-4.00;99.90;;;;;;5058783;28;19932;-60
2024/01/03 09:22:28;;;;;;;;;;;-4.00;99.90;;;;;;5063392;28;19986;-58
2024/01/03 09:24:55;;;;;;;;;;;-4.00;99.90;;;;;;5058745;28;20359;-62
2024/01/03 09:27:22;;;;;;;;;;;-4.00;99.90;;;;;;5053191;28;19967;-59
2024/01/03 09:29:49;;;;;;;;;;;-4.00;99.90;;;;;;5055684;28;20433;-58
2024/01/03 09:32:16;;;;;;;;;;;-4.00;99.90;;;;;;5054277;28;19925;-61
2024/01/03 09:34:44;;;;;;;;;;;-4.00;99.90;;;;;;5056093;28;20310;-59
2024/01/03 09:37:11;;;;;;;;;;;-4.00;99.90;;;;;;5054547;28;19933;-59
2024/01/03 09:39:37;;;;;;;;;;;-4.00;99.90;;;;;;5050174;28;19968;-69
2024/01/03 09:42:04;;;;;;;;;;;-4.00;99.90;;;;;;5046634;28;19974;-60
2024/01/03 09:44:32;;;;;;;;;;;-3.90;99.90;;;;;;5060798;28;20011;-62
2024/01/03 09:47:00;;;;;;;;;;;-3.90;99.90;;;;;;5056351;28;20295;-59
2024/01/03 09:49:27;;;;;;;;;;;-3.90;99.90;;;;;;5059793;28;19935;-65
2024/01/03 09:51:55;;;;;;;;;;;-3.80;99.90;;;;;;5053521;28;19925;-67
2024/01/03 09:54:21;;;;;;;;;;;-3.80;99.90;;;;;;5051153;28;20438;-62
2024/01/03 09:56:51;;;;;;;;;;;-3.80;99.90;;;;;;5056194;28;20023;-60
2024/01/03 09:59:19;;;;;;;;;;;-3.90;99.90;;;;;;5053657;28;19939;-61
2024/01/03 10:01:58;;;;;;;;;;;-3.90;99.90;;;;;;5034783;28;19932;-63
2024/01/03 10:04:26;;;;;;;;;;;-3.90;99.90;;;;;;5041340;28;20024;-66
2024/01/03 10:06:54;;;;;;;;;;;-3.90;99.90;;;;;;5055974;28;19958;-60
2024/01/03 10:09:21;;;;;;;;;;;-3.90;99.90;;;;;;5056996;28;20027;-60
2024/01/03 10:11:52;;;;;;;;;;;-3.90;99.90;;;;;;5057065;28;20336;-60
2024/01/03 10:14:21;;;;;;;;;;;-3.90;99.90;;;;;;5060933;28;19997;-63
2024/01/03 10:16:48;;;;;;;;;;;-3.90;99.90;;;;;;5053652;28;20449;-64
2024/01/03 10:19:16;;;;;;;;;;;-3.90;99.90;;;;;;5052533;28;20023;-62
2024/01/03 10:21:51;;;;;;;;;;;-3.90;99.90;;;;;;5051253;28;20001;-60
2024/01/03 10:24:18;;;;;;;;;;;-3.90;99.90;;;;;;5049833;28;19924;-60
2024/01/03 10:26:45;;;;;;;;;;;-3.90;99.90;;;;;;5047677;28;20011;-58
2024/01/03 10:29:14;;;;;;;;;;;-3.80;99.90;;;;;;5051059;28;19979;-64
2024/01/03 10:31:41;;;;;;;;;;;-3.80;99.90;;;;;;5053546;28;19933;-59
2024/01/03 10:34:15;;;;;;;;;;;-3.80;99.90;;;;;;5054650;28;19978;-59
2024/01/03 10:36:43;;;;;;;;;;;-3.80;99.90;;;;;;5050808;28;19929;-58
2024/01/03 10:39:13;;;;;;;;;;;-3.90;99.90;;;;;;5053211;28;19925;-60
2024/01/03 10:41:41;;;;;;;;;;;-3.90;99.90;;;;;;5054086;28;20452;-59
2024/01/03 10:44:09;;;;;;;;;;;-3.90;99.90;;;;;;5053126;28;19940;-60
2024/01/03 10:46:37;;;;;;;;;;;-3.90;99.90;;;;;;5055614;28;20734;-63
2024/01/03 10:49:06;;;;;;;;;;;-3.90;99.90;;;;;;5050184;28;19932;-62
2024/01/03 10:51:37;;;;;;;;;;;-3.90;99.90;;;;;;5046677;28;19975;-58
2024/01/03 10:54:04;;;;;;;;;;;-3.90;99.90;;;;;;5056494;28;19936;-62
2024/01/03 10:56:34;;;;;;;;;;;-3.90;99.90;;;;;;5053893;28;20059;-59
2024/01/03 10:59:01;;;;;;;;;;;-3.90;99.90;;;;;;5059456;28;19931;-59
2024/01/03 11:01:29;;;;;;;;;;;-3.90;99.90;;;;;;5057462;28;20282;-58
2024/01/03 11:04:03;;;;;;;;;;;-3.90;99.90;;;;;;5054951;28;19935;-62
2024/01/03 11:06:48;;;;;;;;;;;-3.90;99.90;;;;;;5047944;28;19964;-60
2024/01/03 11:09:15;;;;;;;;;;;-3.90;99.90;;;;;;5052076;28;19936;-61
2024/01/03 11:11:47;;;;;;;;;;;-3.90;99.90;;;;;;5049159;28;19935;-60
2024/01/03 11:14:16;;;;;;;;;;;-3.80;99.90;;;;;;5048266;28;19933;-59
2024/01/03 11:16:44;;;;;;;;;;;-3.80;99.90;;;;;;5048563;28;20279;-60
2024/01/03 11:19:11;;;;;;;;;;;-3.90;99.90;;;;;;5057028;28;19994;-58
2024/01/03 11:21:45;;;;;;;;;;;-3.90;99.90;;;;;;5054868;28;19925;-60
2024/01/03 11:24:18;;;;;;;;;;;-3.90;99.90;;;;;;5057576;28;19932;-64
2024/01/03 11:26:58;;;;;;;;;;;-3.90;99.90;;;;;;5059378;28;19956;-58
2024/01/03 11:29:35;;;;;;;;;;;-3.90;99.90;;;;;;5050978;28;19930;-58
2024/01/03 11:32:04;;;;;;;;;;;-3.90;99.90;;;;;;5048093;28;19925;-59
2024/01/03 11:34:37;;;;;;;;;;;-3.90;99.90;;;;;;5050769;28;19943;-62
2024/01/03 11:37:27;;;;;;;;;;;-3.90;99.90;;;;;;5048886;28;20375;-61
2024/01/03 11:39:54;;;;;;;;;;;-3.90;99.90;;;;;;5050450;28;20048;-60
2024/01/03 11:42:21;;;;;;;;;;;-3.90;99.90;;;;;;5058921;28;20059;-61
2024/01/03 11:45:08;;;;;;;;;;;-3.90;99.90;;;;;;5057835;28;20341;-59
2024/01/03 11:47:41;;;;;;;;;;;-3.90;99.90;;;;;;5052266;28;19933;-64
2024/01/03 11:50:09;;;;;;;;;;;-3.90;99.90;;;;;;5049171;28;19929;-61
2024/01/03 11:52:37;;;;;;;;;;;-3.90;99.90;;;;;;5049229;28;19929;-60
2024/01/03 11:55:10;;;;;;;;;;;-3.90;99.90;;;;;;5053895;28;19931;-60
2024/01/03 11:57:40;;;;;;;;;;;-3.90;99.90;;;;;;5049912;28;19925;-63
2024/01/03 12:00:10;;;;;;;;;;;-3.90;99.90;;;;;;5050221;28;19958;-59
2024/01/03 12:02:37;;;;;;;;;;;-3.90;99.90;;;;;;5045964;28;19964;-63
2024/01/03 12:05:05;;;;;;;;;;;-3.90;99.90;;;;;;5053470;28;20032;-61
2024/01/03 12:07:35;;;;;;;;;;;-3.90;99.90;;;;;;5055576;28;20023;-62
2024/01/03 12:10:04;;;;;;;;;;;-3.90;99.90;;;;;;5054086;28;20449;-65
2024/01/03 12:12:32;;;;;;;;;;;-3.90;99.90;;;;;;5058165;28;19986;-60
2024/01/03 12:14:59;;;;;;;;;;;-4.00;99.90;;;;;;5054084;28;20397;-60
2024/01/03 12:17:27;;;;;;;;;;;-4.00;99.90;;;;;;5059093;28;20015;-60
2024/01/03 12:20:06;;;;;;;;;;;-3.90;99.90;;;;;;5048825;28;19931;-61
2024/01/03 12:22:34;;;;;;;;;;;-3.90;99.90;;;;;;5051111;28;19929;-67
2024/01/03 12:25:01;;;;;;;;;;;-3.90;99.90;;;;;;5046819;28;20374;-62
2024/01/03 12:27:29;;;;;;;;;;;-4.00;99.90;;;;;;5049573;28;19970;-59
2024/01/03 12:30:15;;;;;;;;;;;-4.00;99.90;;;;;;5053984;28;20382;-61
2024/01/03 12:32:43;;;;;;;;;;;-3.90;99.90;;;;;;5048658;28;19929;-58
2024/01/03 12:35:12;;;;;;;;;;;-3.90;99.90;;;;;;5056854;28;20271;-64
2024/01/03 12:37:44;;;;;;;;;;;-3.90;99.90;;;;;;5050269;28;19951;-62
2024/01/03 12:40:16;;;;;;;;;;;-4.00;99.90;;;;;;5051165;28;20302;-65
2024/01/03 12:42:44;;;;;;;;;;;-4.00;99.90;;;;;;5045803;28;20422;-62
2024/01/03 12:45:11;;;;;;;;;;;-4.00;99.90;;;;;;5046510;28;20244;-62
2024/01/03 12:47:38;;;;;;;;;;;-4.00;99.90;;;;;;5047707;28;20034;-64
2024/01/03 12:50:07;;;;;;;;;;;-4.00;99.90;;;;;;5078198;28;19951;-61
2024/01/03 12:52:35;;;;;;;;;;;-4.10;99.90;;;;;;5050543;28;20352;-60
2024/01/03 12:55:03;;;;;;;;;;;-4.10;99.90;;;;;;5050760;28;20506;-60
2024/01/03 12:57:30;;;;;;;;;;;-4.10;99.90;;;;;;5051709;28;19963;-59
2024/01/03 12:59:57;;;;;;;;;;;-4.10;99.90;;;;;;5055187;28;20659;-67
2024/01/03 13:02:24;;;;;;;;;;;-4.10;99.90;;;;;;5059099;28;20015;-58
2024/01/03 13:04:51;;;;;;;;;;;-4.10;99.90;;;;;;5052899;28;19928;-63
2024/01/03 13:07:18;;;;;;;;;;;-4.20;99.90;;;;;;5053698;28;19928;-59
2024/01/03 13:09:45;;;;;;;;;;;-4.20;99.90;;;;;;5052485;28;19933;-58
2024/01/03 13:12:12;;;;;;;;;;;-4.10;99.90;;;;;;5046250;28;19975;-63
2024/01/03 13:14:39;;;;;;;;;;;-4.10;99.90;;;;;;5053459;28;19952;-61
2024/01/03 13:17:06;;;;;;;;;;;-4.10;99.90;;;;;;5059677;28;20319;-59
2024/01/03 13:19:32;;;;;;;;;;;-4.10;99.90;;;;;;5054974;28;19941;-63
2024/01/03 13:22:01;;;;;;;;;;;-4.10;99.90;;;;;;5053563;28;20058;-63
2024/01/03 13:24:28;;;;;;;;;;;-4.20;99.90;;;;;;5052822;28;19936;-61
2024/01/03 13:26:55;;;;;;;;;;;-4.10;99.90;;;;;;5056265;28;20525;-62
2024/01/03 13:29:22;;;;;;;;;;;-4.20;99.90;;;;;;5054584;28;19933;-59
2024/01/03 13:31:49;;;;;;;;;;;-4.10;99.90;;;;;;5051538;28;19935;-58
2024/01/03 13:34:16;;;;;;;;;;;-4.10;99.90;;;;;;5050204;28;19933;-59
2024/01/03 13:36:43;;;;;;;;;;;-4.10;99.90;;;;;;5048114;28;19959;-61
2024/01/03 13:39:11;;;;;;;;;;;-4.20;99.90;;;;;;5052651;28;19936;-63
2024/01/03 13:41:38;;;;;;;;;;;-4.20;99.90;;;;;;5057541;28;19932;-64
2024/01/03 13:44:06;;;;;;;;;;;-4.20;99.90;;;;;;5060121;28;19930;-63
2024/01/03 13:46:33;;;;;;;;;;;-4.20;99.90;;;;;;5053455;28;19928;-61
2024/01/03 13:48:59;;;;;;;;;;;-4.30;99.90;;;;;;5055059;28;19990;-58
2024/01/03 13:51:27;;;;;;;;;;;-4.30;99.90;;;;;;5054029;28;19924;-60
2024/01/03 13:53:57;;;;;;;;;;;-4.30;99.90;;;;;;5046543;28;19925;-66
2024/01/03 13:56:25;;;;;;;;;;;-4.30;99.90;;;;;;5052041;28;19932;-61
2024/01/03 13:58:52;;;;;;;;;;;-4.30;99.90;;;;;;5048352;28;20354;-59
2024/01/03 14:01:20;;;;;;;;;;;-4.40;99.90;;;;;;5057334;28;19928;-59
2024/01/03 14:03:47;;;;;;;;;;;-4.40;99.90;;;;;;5057759;28;19933;-61
2024/01/03 14:06:15;;;;;;;;;;;-4.40;99.90;;;;;;5052131;28;19932;-61
2024/01/03 14:08:42;;;;;;;;;;;-4.40;99.90;;;;;;5051474;28;19932;-60
2024/01/03 14:11:09;;;;;;;;;;;-4.40;99.90;;;;;;5055856;28;19925;-59
2024/01/03 14:13:36;;;;;;;;;;;-4.40;99.90;;;;;;5053877;28;19924;-58
2024/01/03 14:16:05;;;;;;;;;;;-4.40;99.90;;;;;;5054123;28;19929;-59
2024/01/03 14:18:32;;;;;;;;;;;-4.40;99.90;;;;;;5053995;28;20390;-58
2024/01/03 14:21:01;;;;;;;;;;;-4.40;99.90;;;;;;5046769;28;20860;-61